createdAt,value
2018-05-17T00:01:06.713Z,7.70
2018-05-17T00:03:34.192Z,5.83
2018-05-17T00:06:02.452Z,10.67
2018-05-17T00:08:29.927Z,5.13
2018-05-17T00:10:58.196Z,9.30
2018-05-17T00:13:26.439Z,6.20
2018-05-17T00:15:54.028Z,7.33
2018-05-17T00:18:22.268Z,5.13
2018-05-17T00:20:50.231Z,9.10
2018-05-17T00:23:17.955Z,7.30
2018-05-17T00:25:45.432Z,8.37
2018-05-17T00:28:12.923Z,7.97
2018-05-17T00:30:40.512Z,6.40
2018-05-17T00:33:08.780Z,9.20
2018-05-17T00:35:36.352Z,15.70
2018-05-17T00:38:03.903Z,8.90
2018-05-17T00:40:32.159Z,8.63
2018-05-17T00:42:59.640Z,7.17
2018-05-17T00:45:27.901Z,7.53
2018-05-17T00:47:57.011Z,7.87
2018-05-17T00:50:25.267Z,6.23
2018-05-17T00:53:06.080Z,6.30
2018-05-17T00:55:33.612Z,5.67
2018-05-17T00:58:02.858Z,7.73
2018-05-17T01:00:31.985Z,7.67
2018-05-17T01:02:59.716Z,8.10
2018-05-17T01:05:27.480Z,7.63
2018-05-17T01:07:55.243Z,16.60
2018-05-17T01:10:22.757Z,9.53
2018-05-17T01:12:51.040Z,12.70
2018-05-17T01:15:19.379Z,21.60
2018-05-17T01:17:46.856Z,15.23
2018-05-17T01:20:14.352Z,25.70
2018-05-17T01:22:41.827Z,10.40
2018-05-17T01:25:09.345Z,13.63
2018-05-17T01:27:37.619Z,19.87
2018-05-17T01:30:06.140Z,11.50
2018-05-17T01:32:33.656Z,14.00
2018-05-17T01:35:02.196Z,16.47
2018-05-17T01:37:42.500Z,14.97
2018-05-17T01:40:11.020Z,25.77
2018-05-17T01:42:38.788Z,21.50
2018-05-17T01:45:06.271Z,13.97
2018-05-17T01:47:33.859Z,12.17
2018-05-17T01:50:02.109Z,22.20
2018-05-17T01:52:29.613Z,24.07
2018-05-17T01:54:57.099Z,19.03
2018-05-17T01:57:24.587Z,18.40
2018-05-17T01:59:52.091Z,20.37
2018-05-17T02:02:19.872Z,24.00
2018-05-17T02:04:47.372Z,16.47
2018-05-17T02:07:14.852Z,17.73
2018-05-17T02:09:43.095Z,19.07
2018-05-17T02:12:11.395Z,9.30
2018-05-17T02:14:39.919Z,16.47
2018-05-17T02:17:07.435Z,12.33
2018-05-17T02:19:35.680Z,22.73
2018-05-17T02:22:03.182Z,15.50
2018-05-17T02:24:31.431Z,17.23
2018-05-17T02:26:59.251Z,15.67
2018-05-17T02:29:26.770Z,17.27
2018-05-17T02:31:55.048Z,22.30
2018-05-17T02:34:23.312Z,18.97
2018-05-17T02:36:50.796Z,13.63
2018-05-17T02:39:18.336Z,13.50
2018-05-17T02:41:46.712Z,13.77
2018-05-17T02:44:14.964Z,19.33
2018-05-17T02:46:42.463Z,22.10
2018-05-17T02:49:10.264Z,20.03
2018-05-17T02:51:37.764Z,19.37
2018-05-17T02:54:05.268Z,16.43
2018-05-17T02:56:32.780Z,17.70
2018-05-17T02:59:01.032Z,14.40
2018-05-17T03:01:29.283Z,16.83
2018-05-17T03:03:57.045Z,15.53
2018-05-17T03:06:24.524Z,16.43
2018-05-17T03:08:52.020Z,17.40
2018-05-17T03:11:20.268Z,17.80
2018-05-17T03:13:47.775Z,16.77
2018-05-17T03:16:15.309Z,21.03
2018-05-17T03:18:43.586Z,19.07
2018-05-17T03:21:11.851Z,15.33
2018-05-17T03:23:40.099Z,19.73
2018-05-17T03:26:07.839Z,20.50
2018-05-17T03:28:35.609Z,16.87
2018-05-17T03:31:03.112Z,29.97
2018-05-17T03:33:30.628Z,16.37
2018-05-17T03:35:58.128Z,20.10
2018-05-17T03:38:26.656Z,19.93
2018-05-17T03:40:54.423Z,26.20
2018-05-17T03:43:21.923Z,14.17
2018-05-17T03:45:49.408Z,14.30
2018-05-17T03:48:16.919Z,14.50
2018-05-17T03:50:44.547Z,19.80
2018-05-17T03:53:12.067Z,13.03
2018-05-17T03:55:40.339Z,23.83
2018-05-17T03:58:07.824Z,21.83
2018-05-17T04:00:47.240Z,16.33
2018-05-17T04:03:27.548Z,14.00
2018-05-17T04:06:07.015Z,18.47
2018-05-17T04:08:35.473Z,20.40
2018-05-17T04:11:02.876Z,19.27
2018-05-17T04:13:31.395Z,19.17
2018-05-17T04:15:59.164Z,23.37
2018-05-17T04:18:26.684Z,19.70
2018-05-17T04:20:54.948Z,16.47
2018-05-17T04:23:23.224Z,20.63
2018-05-17T04:25:51.752Z,18.27
2018-05-17T04:28:19.252Z,20.93
2018-05-17T04:30:47.068Z,15.53
2018-05-17T04:33:14.832Z,20.57
2018-05-17T04:35:43.322Z,12.97
2018-05-17T04:38:12.388Z,18.83
2018-05-17T04:40:40.180Z,16.73
2018-05-17T04:43:07.811Z,16.10
2018-05-17T04:45:36.056Z,14.83
2018-05-17T04:48:03.536Z,21.60
2018-05-17T04:50:32.388Z,20.73
2018-05-17T04:52:59.871Z,24.83
2018-05-17T04:55:28.499Z,22.43
2018-05-17T04:57:56.432Z,33.07
2018-05-17T05:00:23.940Z,22.23
2018-05-17T05:02:51.444Z,22.93
2018-05-17T05:05:18.940Z,17.77
2018-05-17T05:07:46.421Z,21.27
2018-05-17T05:10:13.910Z,17.27
2018-05-17T05:12:42.851Z,20.10
2018-05-17T05:15:10.613Z,18.47
2018-05-17T05:17:38.380Z,17.20
2018-05-17T05:20:05.863Z,17.23
2018-05-17T05:22:33.349Z,17.30
2018-05-17T05:25:01.630Z,14.50
2018-05-17T05:27:29.879Z,18.13
2018-05-17T05:29:58.152Z,15.57
2018-05-17T05:32:25.636Z,17.67
2018-05-17T05:34:53.883Z,14.90
2018-05-17T05:37:21.384Z,25.50
2018-05-17T05:39:48.863Z,14.00
2018-05-17T05:42:16.588Z,15.47
2018-05-17T05:44:44.864Z,16.13
2018-05-17T05:47:13.481Z,11.40
2018-05-17T05:49:40.999Z,13.47
2018-05-17T05:52:08.811Z,16.10
2018-05-17T05:54:36.315Z,12.87
2018-05-17T05:57:04.041Z,14.03
2018-05-17T05:59:35.341Z,15.70
2018-05-17T06:02:04.591Z,13.57
2018-05-17T06:04:41.066Z,17.67
2018-05-17T06:07:11.520Z,15.57
2018-05-17T06:09:39.194Z,12.50
2018-05-17T06:12:09.647Z,12.47
2018-05-17T06:14:40.406Z,10.77
2018-05-17T06:17:09.139Z,11.23
2018-05-17T06:19:37.383Z,11.57
2018-05-17T06:22:04.864Z,11.37
2018-05-17T06:24:33.481Z,14.50
2018-05-17T06:27:01.269Z,14.03
2018-05-17T06:29:29.235Z,14.17
2018-05-17T06:31:58.083Z,13.40
2018-05-17T06:34:27.543Z,12.83
2018-05-17T06:36:55.802Z,12.43
2018-05-17T06:39:23.424Z,16.20
2018-05-17T06:41:52.352Z,19.10
2018-05-17T06:44:20.524Z,10.60
2018-05-17T06:46:54.390Z,16.60
2018-05-17T06:49:26.570Z,12.27
2018-05-17T06:51:55.431Z,22.87
2018-05-17T06:54:26.644Z,14.73
2018-05-17T06:56:55.490Z,14.60
2018-05-17T06:59:24.418Z,15.40
2018-05-17T07:02:01.303Z,11.63
2018-05-17T07:04:35.055Z,19.53
2018-05-17T07:07:05.694Z,16.77
2018-05-17T07:09:37.301Z,12.17
2018-05-17T07:12:12.359Z,12.83
2018-05-17T07:14:46.063Z,17.87
2018-05-17T07:17:16.960Z,14.83
2018-05-17T07:19:46.656Z,12.70
2018-05-17T07:22:15.184Z,16.30
2018-05-17T07:24:43.678Z,16.00
2018-05-17T07:27:16.771Z,16.50
2018-05-17T07:29:49.533Z,16.27
2018-05-17T07:32:21.936Z,16.13
2018-05-17T07:34:53.435Z,14.40
2018-05-17T07:37:26.627Z,15.27
2018-05-17T07:39:57.871Z,18.87
2018-05-17T07:42:25.352Z,16.87
2018-05-17T07:44:54.032Z,13.60
2018-05-17T07:47:21.543Z,14.67
2018-05-17T07:49:50.451Z,13.90
2018-05-17T07:52:18.216Z,20.50
2018-05-17T07:54:45.701Z,16.27
2018-05-17T07:57:13.927Z,19.30
2018-05-17T07:59:44.335Z,13.37
2018-05-17T08:02:12.952Z,12.90
2018-05-17T08:04:40.451Z,17.50
2018-05-17T08:07:07.927Z,11.07
2018-05-17T08:09:36.211Z,10.67
2018-05-17T08:12:04.734Z,15.47
2018-05-17T08:14:32.250Z,13.70
2018-05-17T08:17:00.515Z,10.97
2018-05-17T08:19:27.995Z,16.40
2018-05-17T08:21:55.784Z,10.90
2018-05-17T08:24:23.282Z,13.53
2018-05-17T08:26:51.531Z,12.87
2018-05-17T08:29:19.135Z,9.90
2018-05-17T08:31:47.416Z,12.20
2018-05-17T08:34:16.095Z,11.63
2018-05-17T08:36:44.465Z,10.03
2018-05-17T08:39:11.843Z,9.03
2018-05-17T08:41:39.344Z,10.70
2018-05-17T08:44:06.824Z,10.67
2018-05-17T08:46:34.311Z,11.17
2018-05-17T08:49:01.812Z,11.30
2018-05-17T08:51:29.535Z,10.17
2018-05-17T08:53:58.016Z,11.30
2018-05-17T08:56:26.264Z,21.63
2018-05-17T08:58:53.748Z,15.27
2018-05-17T09:01:22.379Z,17.17
2018-05-17T09:03:49.860Z,12.87
2018-05-17T09:06:17.721Z,12.37
2018-05-17T09:08:45.208Z,13.83
2018-05-17T09:11:13.940Z,22.60
2018-05-17T09:13:41.447Z,16.17
2018-05-17T09:16:10.136Z,10.80
2018-05-17T09:18:38.920Z,11.37
2018-05-17T09:21:07.531Z,10.30
2018-05-17T09:23:36.395Z,12.23
2018-05-17T09:26:05.033Z,11.67
2018-05-17T09:28:32.739Z,22.97
2018-05-17T09:31:01.424Z,12.67
2018-05-17T09:33:29.951Z,12.80
2018-05-17T09:35:57.502Z,12.97
2018-05-17T09:38:24.999Z,13.27
2018-05-17T09:40:53.303Z,16.17
2018-05-17T09:43:20.763Z,12.10
2018-05-17T09:45:49.016Z,13.60
2018-05-17T09:48:18.004Z,16.53
2018-05-17T09:50:45.584Z,12.83
2018-05-17T09:53:13.866Z,11.67
2018-05-17T09:55:42.136Z,16.23
2018-05-17T09:58:10.383Z,10.67
2018-05-17T10:00:47.163Z,16.97
2018-05-17T10:03:17.760Z,13.30
2018-05-17T10:05:49.658Z,12.57
2018-05-17T10:08:24.843Z,9.50
2018-05-17T10:10:57.098Z,12.80
2018-05-17T10:13:25.983Z,15.70
2018-05-17T10:15:54.251Z,17.23
2018-05-17T10:18:22.881Z,23.20
2018-05-17T10:20:50.391Z,12.67
2018-05-17T10:23:19.032Z,16.40
2018-05-17T10:25:46.516Z,19.13
2018-05-17T10:28:14.095Z,17.97
2018-05-17T10:30:42.728Z,11.30
2018-05-17T10:33:10.212Z,16.53
2018-05-17T10:35:37.715Z,17.70
2018-05-17T10:38:05.504Z,26.50
2018-05-17T10:40:37.268Z,20.43
2018-05-17T10:43:04.755Z,27.63
2018-05-17T10:45:32.243Z,20.93
2018-05-17T10:48:00.608Z,16.40
2018-05-17T10:50:29.295Z,14.00
2018-05-17T10:52:57.563Z,12.03
2018-05-17T10:55:25.050Z,12.87
2018-05-17T10:57:52.643Z,17.13
2018-05-17T11:00:20.394Z,14.40
2018-05-17T11:02:47.887Z,15.13
2018-05-17T11:05:16.372Z,10.83
2018-05-17T11:07:43.949Z,21.93
2018-05-17T11:10:14.092Z,22.33
2018-05-17T11:12:41.583Z,12.23
2018-05-17T11:15:09.081Z,11.50
2018-05-17T11:17:37.343Z,10.73
2018-05-17T11:20:08.855Z,10.57
2018-05-17T11:22:36.615Z,15.03
2018-05-17T11:25:04.135Z,10.40
2018-05-17T11:27:32.753Z,15.00
2018-05-17T11:30:02.525Z,16.03
2018-05-17T11:32:31.866Z,9.57
2018-05-17T11:35:01.747Z,14.50
2018-05-17T11:37:30.391Z,14.43
2018-05-17T11:39:57.872Z,13.03
2018-05-17T11:42:28.075Z,12.37
2018-05-17T11:44:58.714Z,15.70
2018-05-17T11:47:29.931Z,9.90
2018-05-17T11:50:02.467Z,11.57
2018-05-17T11:52:31.943Z,17.67
2018-05-17T11:55:01.727Z,11.77
2018-05-17T11:57:30.171Z,10.53
2018-05-17T11:59:58.915Z,8.23
2018-05-17T12:02:31.736Z,10.23
2018-05-17T12:05:03.627Z,9.27
2018-05-17T12:07:41.690Z,10.10
2018-05-17T12:10:14.187Z,13.60
2018-05-17T12:12:50.322Z,19.17
2018-05-17T12:15:22.746Z,9.40
2018-05-17T12:17:55.327Z,35.13
2018-05-17T12:20:31.632Z,14.53
2018-05-17T12:23:04.243Z,15.87
2018-05-17T12:25:42.765Z,14.57
2018-05-17T12:28:15.103Z,13.63
2018-05-17T12:30:46.902Z,11.63
2018-05-17T12:33:21.591Z,11.90
2018-05-17T12:35:50.939Z,12.87
2018-05-17T12:38:19.368Z,11.30
2018-05-17T12:40:48.302Z,19.63
2018-05-17T12:43:20.811Z,15.80
2018-05-17T12:45:48.286Z,8.23
2018-05-17T12:48:16.568Z,11.60
2018-05-17T12:50:44.913Z,22.47
2018-05-17T12:53:12.404Z,8.60
2018-05-17T12:55:40.668Z,14.60
2018-05-17T12:58:08.151Z,10.17
2018-05-17T13:00:35.653Z,17.20
2018-05-17T13:03:03.131Z,11.20
2018-05-17T13:05:30.615Z,15.00
2018-05-17T13:07:59.099Z,14.90
2018-05-17T13:10:27.346Z,13.17
2018-05-17T13:12:55.174Z,8.90
2018-05-17T13:15:22.931Z,8.33
2018-05-17T13:17:50.452Z,15.03
2018-05-17T13:20:18.723Z,9.37
2018-05-17T13:22:47.328Z,8.50
2018-05-17T13:25:15.011Z,14.03
2018-05-17T13:27:42.528Z,11.37
2018-05-17T13:30:10.814Z,25.43
2018-05-17T13:32:38.288Z,10.27
2018-05-17T13:35:06.071Z,7.37
2018-05-17T13:37:33.684Z,10.50
2018-05-17T13:40:01.924Z,9.83
2018-05-17T13:42:29.420Z,16.13
2018-05-17T13:44:57.683Z,12.50
2018-05-17T13:47:25.400Z,9.93
2018-05-17T13:49:52.895Z,7.83
2018-05-17T13:52:20.363Z,9.00
2018-05-17T13:54:47.928Z,10.20
2018-05-17T13:57:16.202Z,9.30
2018-05-17T13:59:44.453Z,13.17
2018-05-17T14:02:12.194Z,8.70
2018-05-17T14:04:39.676Z,13.30
2018-05-17T14:07:07.156Z,14.47
2018-05-17T14:09:35.435Z,12.90
2018-05-17T14:12:02.907Z,7.67
2018-05-17T14:14:30.708Z,7.10
2018-05-17T14:16:58.191Z,11.73
2018-05-17T14:19:27.176Z,7.43
2018-05-17T14:21:54.672Z,7.97
2018-05-17T14:24:22.171Z,11.30
2018-05-17T14:26:49.677Z,12.03
2018-05-17T14:29:17.921Z,6.50
2018-05-17T14:31:45.505Z,8.70
2018-05-17T14:34:12.920Z,7.90
2018-05-17T14:36:40.403Z,7.23
2018-05-17T14:39:07.896Z,7.77
2018-05-17T14:41:36.408Z,9.53
2018-05-17T14:44:03.925Z,8.70
2018-05-17T14:46:32.199Z,7.40
2018-05-17T14:49:00.443Z,7.17
2018-05-17T14:51:27.944Z,12.13
2018-05-17T14:53:56.205Z,6.57
2018-05-17T14:56:24.446Z,9.77
2018-05-17T14:58:51.941Z,10.40
2018-05-17T15:01:20.257Z,6.50
2018-05-17T15:03:47.708Z,6.10
2018-05-17T15:06:15.183Z,6.07
2018-05-17T15:08:42.717Z,10.33
2018-05-17T15:11:14.746Z,5.60
2018-05-17T15:13:37.915Z,7.07
2018-05-17T15:16:06.431Z,7.00
2018-05-17T15:18:33.907Z,4.50
2018-05-17T15:21:01.660Z,6.30
2018-05-17T15:23:29.168Z,5.03
2018-05-17T15:25:57.412Z,7.47
2018-05-17T15:28:24.908Z,4.87
2018-05-17T15:30:53.185Z,8.90
2018-05-17T15:33:21.427Z,14.93
2018-05-17T15:35:48.922Z,6.67
2018-05-17T15:38:16.408Z,8.03
2018-05-17T15:40:43.903Z,4.83
2018-05-17T15:43:11.380Z,4.73
2018-05-17T15:45:39.092Z,4.50
2018-05-17T15:48:06.612Z,4.47
2018-05-17T15:50:35.296Z,8.30
2018-05-17T15:53:03.668Z,3.90
2018-05-17T15:55:31.952Z,5.90
2018-05-17T15:58:00.195Z,5.40
2018-05-17T16:00:27.687Z,4.57
2018-05-17T16:02:55.933Z,3.23
2018-05-17T16:05:23.431Z,3.77
2018-05-17T16:07:50.907Z,3.93
2018-05-17T16:10:19.584Z,4.13
2018-05-17T16:12:47.455Z,3.87
2018-05-17T16:15:15.119Z,3.47
2018-05-17T16:17:42.432Z,5.00
2018-05-17T16:20:10.687Z,4.17
2018-05-17T16:22:38.268Z,8.30
2018-05-17T16:25:06.528Z,5.33
2018-05-17T16:27:34.013Z,7.70
2018-05-17T16:30:02.288Z,7.30
2018-05-17T16:32:30.803Z,4.00
2018-05-17T16:34:58.286Z,12.33
2018-05-17T16:37:25.781Z,3.20
2018-05-17T16:39:55.509Z,4.03
2018-05-17T16:42:23.036Z,4.70
2018-05-17T16:44:51.686Z,5.30
2018-05-17T16:47:19.321Z,4.27
2018-05-17T16:49:46.864Z,3.50
2018-05-17T16:52:14.340Z,2.90
2018-05-17T16:54:41.876Z,3.37
2018-05-17T16:57:10.121Z,4.87
2018-05-17T16:59:38.365Z,4.80
2018-05-17T17:02:05.859Z,2.70
2018-05-17T17:04:33.427Z,2.80
2018-05-17T17:07:01.706Z,3.87
2018-05-17T17:09:29.963Z,10.27
2018-05-17T17:11:57.485Z,3.17
2018-05-17T17:14:25.016Z,3.53
2018-05-17T17:16:52.503Z,8.97
2018-05-17T17:19:19.995Z,3.10
2018-05-17T17:21:47.496Z,2.87
2018-05-17T17:24:14.976Z,3.30
2018-05-17T17:26:42.472Z,3.20
2018-05-17T17:29:09.958Z,4.03
2018-05-17T17:31:37.523Z,3.40
2018-05-17T17:34:05.005Z,3.30
2018-05-17T17:36:32.784Z,2.90
2018-05-17T17:39:00.280Z,2.90
2018-05-17T17:41:29.212Z,14.73
2018-05-17T17:43:57.185Z,4.67
2018-05-17T17:46:24.687Z,3.80
2018-05-17T17:48:52.255Z,4.03
2018-05-17T17:51:20.779Z,3.57
2018-05-17T17:53:53.378Z,5.10
2018-05-17T17:56:23.219Z,3.50
2018-05-17T17:58:52.405Z,5.00
2018-05-17T18:01:20.131Z,3.80
2018-05-17T18:03:47.624Z,4.27
2018-05-17T18:06:15.097Z,6.20
2018-05-17T18:08:42.593Z,6.17
2018-05-17T18:11:11.260Z,3.77
2018-05-17T18:13:44.150Z,5.53
2018-05-17T18:16:12.976Z,6.23
2018-05-17T18:18:45.191Z,9.30
2018-05-17T18:21:19.506Z,10.40
2018-05-17T18:23:56.482Z,11.50
2018-05-17T18:26:35.211Z,3.20
2018-05-17T18:29:04.059Z,5.83
2018-05-17T18:31:33.830Z,8.40
2018-05-17T18:34:02.654Z,4.20
2018-05-17T18:36:31.555Z,4.20
2018-05-17T18:39:04.591Z,4.17
2018-05-17T18:41:33.472Z,5.80
2018-05-17T18:44:10.015Z,6.07
2018-05-17T18:46:49.813Z,4.13
2018-05-17T18:49:25.467Z,4.50
2018-05-17T18:51:57.167Z,3.80
2018-05-17T18:54:28.189Z,3.77
2018-05-17T18:57:03.489Z,5.10
2018-05-17T18:59:49.323Z,5.23
2018-05-17T19:02:18.482Z,5.97
2018-05-17T19:04:47.243Z,3.60
2018-05-17T19:07:16.067Z,7.40
2018-05-17T19:09:47.822Z,4.87
2018-05-17T19:12:20.867Z,5.83
2018-05-17T19:14:52.376Z,4.90
2018-05-17T19:17:26.114Z,4.90
2018-05-17T19:20:02.323Z,15.43
2018-05-17T19:22:41.178Z,4.03
2018-05-17T19:25:18.272Z,5.57
2018-05-17T19:27:52.039Z,8.43
2018-05-17T19:30:23.294Z,7.43
2018-05-17T19:32:59.040Z,6.33
2018-05-17T19:35:29.902Z,5.07
2018-05-17T19:37:58.741Z,6.23
2018-05-17T19:40:27.934Z,5.77
2018-05-17T19:42:56.791Z,9.63
2018-05-17T19:45:29.347Z,17.03
2018-05-17T19:48:00.274Z,8.13
2018-05-17T19:50:37.134Z,8.87
2018-05-17T19:53:05.984Z,5.00
2018-05-17T19:55:39.015Z,5.23
2018-05-17T19:58:09.984Z,7.87
2018-05-17T20:00:45.031Z,7.30
2018-05-17T20:03:20.386Z,4.67
2018-05-17T20:05:50.885Z,8.57
2018-05-17T20:08:23.506Z,4.43
2018-05-17T20:10:56.331Z,5.03
2018-05-17T20:13:28.551Z,5.53
2018-05-17T20:16:01.852Z,6.77
2018-05-17T20:18:30.695Z,5.23
2018-05-17T20:21:07.599Z,11.03
2018-05-17T20:23:38.616Z,7.30
2018-05-17T20:26:18.914Z,5.23
2018-05-17T20:28:48.055Z,8.53
2018-05-17T20:31:16.878Z,4.83
2018-05-17T20:33:45.698Z,12.93
2018-05-17T20:36:14.535Z,4.93
2018-05-17T20:38:43.361Z,15.63
2018-05-17T20:41:12.211Z,6.17
2018-05-17T20:43:41.040Z,6.57
2018-05-17T20:46:11.687Z,6.60
2018-05-17T20:48:40.774Z,5.43
2018-05-17T20:51:09.603Z,12.20
2018-05-17T20:53:38.448Z,6.87
2018-05-17T20:56:07.279Z,7.47
2018-05-17T20:58:36.094Z,4.30
2018-05-17T21:01:04.930Z,8.83
2018-05-17T21:03:33.754Z,5.57
2018-05-17T21:06:02.595Z,7.43
2018-05-17T21:08:31.419Z,9.27
2018-05-17T21:11:00.243Z,4.60
2018-05-17T21:13:29.083Z,6.77
2018-05-17T21:15:58.194Z,4.60
2018-05-17T21:18:27.031Z,4.93
2018-05-17T21:20:55.898Z,11.50
2018-05-17T21:23:24.698Z,5.97
2018-05-17T21:25:53.543Z,15.97
2018-05-17T21:28:22.367Z,9.70
2018-05-17T21:30:51.290Z,6.53
2018-05-17T21:33:20.123Z,4.53
2018-05-17T21:35:48.946Z,6.37
2018-05-17T21:38:17.792Z,8.43
2018-05-17T21:40:46.894Z,8.77
2018-05-17T21:43:15.967Z,10.20
2018-05-17T21:45:45.089Z,11.13
2018-05-17T21:48:13.909Z,8.30
2018-05-17T21:50:43.071Z,6.40
2018-05-17T21:53:15.342Z,11.20
2018-05-17T21:55:52.571Z,4.83
2018-05-17T21:58:24.251Z,6.27
2018-05-17T22:00:54.250Z,6.20
2018-05-17T22:03:25.831Z,4.63
2018-05-17T22:05:53.308Z,5.00
2018-05-17T22:08:20.795Z,5.33
2018-05-17T22:10:48.271Z,3.97
2018-05-17T22:13:16.532Z,7.80
2018-05-17T22:15:44.247Z,4.00
2018-05-17T22:18:11.763Z,4.50
2018-05-17T22:20:40.388Z,6.53
2018-05-17T22:23:07.876Z,9.13
2018-05-17T22:25:35.372Z,5.20
2018-05-17T22:28:03.619Z,9.23
2018-05-17T22:30:31.100Z,5.93
2018-05-17T22:32:59.842Z,6.17
2018-05-17T22:35:27.316Z,8.53
2018-05-17T22:37:54.812Z,4.80
2018-05-17T22:40:23.323Z,5.43
2018-05-17T22:42:50.839Z,14.37
2018-05-17T22:45:19.096Z,6.93
2018-05-17T22:47:46.576Z,10.67
2018-05-17T22:50:15.251Z,7.57
2018-05-17T22:52:42.967Z,6.00
2018-05-17T22:55:11.643Z,9.37
2018-05-17T22:57:51.140Z,13.73
2018-05-17T23:00:20.171Z,15.93
2018-05-17T23:02:50.427Z,5.80
2018-05-17T23:05:18.768Z,30.70
2018-05-17T23:07:49.032Z,6.93
2018-05-17T23:10:20.254Z,7.03
2018-05-17T23:12:50.088Z,10.83
2018-05-17T23:15:20.083Z,4.87
2018-05-17T23:17:54.810Z,6.20
2018-05-17T23:20:29.167Z,6.37
2018-05-17T23:23:03.864Z,9.10
2018-05-17T23:25:38.630Z,11.70
2018-05-17T23:28:10.711Z,7.17
2018-05-17T23:30:43.179Z,5.47
2018-05-17T23:33:17.337Z,8.00
2018-05-17T23:35:53.758Z,6.07
2018-05-17T23:38:22.578Z,6.87
2018-05-17T23:41:12.558Z,8.70
2018-05-17T23:43:40.331Z,4.73
2018-05-17T23:46:08.096Z,10.90
2018-05-17T23:48:41.595Z,4.90
2018-05-17T23:51:26.931Z,4.53
2018-05-17T23:53:56.790Z,7.73
2018-05-17T23:56:25.611Z,5.70
2018-05-17T23:58:54.563Z,2.93
